Chennai, India

5:35 PM IST on September 30, 2016 (GMT +0530)
Chennai International | | Change Station

Elev 52 ft 12.99 °N, 80.18 °E | Updated 5 minutes ago

Partly Cloudy
Partly Cloudy
91 °F
Feels Like 105 °F
N
5
Wind Variable Wind from South

Today
High -- | Low -- °F
--% Chance of Precip.
Yesterday
High -- | Low -- °F
Precip. -- in
Pressure 29.53 in
Visibility 3.7 miles
Clouds Few 2000 ft
Few 2500 ft
Heat Index 105 °F
Dew Point 77 °F
Humidity 63%
Rainfall 0.00 in
Snow Depth Not available.
5:58 AM 5:59 PM
Waning Crescent, 0% visible
METAR VOMM 301200Z 17004KT 6000 FEW020 FEW025CB 33/25 Q1000 NOSIG
Pressure 29.53 in
Visibility 3.7 miles
Clouds Few 2000 ft
Few 2500 ft
Heat Index 105 °F
Dew Point 77 °F
Humidity 63%
Rainfall 0.00 in
Snow Depth Not available.
5:58 AM 5:59 PM
Waning Crescent, 0% visible
METAR VOMM 301200Z 17004KT 6000 FEW020 FEW025CB 33/25 Q1000 NOSIG

10-Day Weather Forecast

No radar image for this location.
×

Almanac

Astronomy

Sep. 30, 2016 Rise Set
Actual Time
Civil Twilight
Nautical Twilight
Astronomical Twilight
Moon
Length of Visible Light
Length of Day
Tomorrow will be .
, % of the Moon is Illuminated

Today's Extremes

Country Highs Country Lows

Community

WunderPhotos

Upload Photos

1,942,706 photos uploaded!

WunderBlog® & News

Nearby

Air Quality

  Air Quality AQ Index Pollutant
Not available.

Snow Depth

Station Depth Elevation

Earthquake Activity

City Distance Mag. Time & Date
Minimum magnitude displayed is 2.5.

Coastal Water Temperatures

Place Temperature

Stations

Nearby Weather Stations

Station Location Temp. Windchill Dew Point Humidity Wind Precip. Elev Updated Type